Time;durP1;ratioP1;P1;durP2;ratioP2;P2;SDS_P1;SDS_P2;PMS_P1;PMS_P2;Temp;Humidity;BMP_temperature;BMP_pressure;BME280_temperature;BME280_humidity;BME280_pressure;Samples;Min_cycle;Max_cycle;Signal;HPM_P1;HPM_P2
2022/12/26 00:01:22;;;;;;;2.50;2.30;;;4.80;99.90;;;;;;4950548;29;20047;-84
2022/12/26 00:03:50;;;;;;;2.38;2.28;;;4.10;99.90;;;;;;4931823;28;20261;-84
2022/12/26 00:06:21;;;;;;;4.82;2.25;;;3.90;99.90;;;;;;4920321;29;20059;-84
2022/12/26 00:08:49;;;;;;;2.85;2.58;;;3.60;99.90;;;;;;4918336;29;20179;-84
2022/12/26 00:11:18;;;;;;;2.50;2.35;;;3.70;99.90;;;;;;4933738;29;20067;-84
2022/12/26 00:13:46;;;;;;;2.60;2.13;;;3.30;99.90;;;;;;4949800;28;20054;-84
2022/12/26 00:16:19;;;;;;;5.10;3.17;;;3.10;99.90;;;;;;4949605;29;20043;-84
2022/12/26 00:18:48;;;;;;;4.15;3.85;;;3.10;99.90;;;;;;4933885;29;20320;-84
2022/12/26 00:21:17;;;;;;;3.33;2.38;;;3.10;99.90;;;;;;4950801;28;20058;-84
2022/12/26 00:23:47;;;;;;;3.60;3.33;;;3.00;99.90;;;;;;4950796;29;20063;-84
2022/12/26 00:26:17;;;;;;;5.63;4.20;;;2.90;99.90;;;;;;4952440;29;20055;-84
2022/12/26 00:28:47;;;;;;;6.20;5.65;;;2.80;99.90;;;;;;4933624;29;20376;-84
2022/12/26 00:31:18;;;;;;;3.58;3.25;;;2.90;99.90;;;;;;4933874;29;20054;-84
2022/12/26 00:33:46;;;;;;;3.80;3.55;;;3.20;99.90;;;;;;4933934;29;20562;-84
2022/12/26 00:36:17;;;;;;;4.10;3.83;;;3.30;99.90;;;;;;4952444;28;20039;-84
2022/12/26 00:38:45;;;;;;;6.00;4.95;;;3.40;99.90;;;;;;4918330;29;20048;-84
2022/12/26 00:41:14;;;;;;;4.95;4.35;;;3.60;99.90;;;;;;4918787;29;20533;-84
2022/12/26 00:43:42;;;;;;;5.25;4.75;;;3.70;99.90;;;;;;4934524;29;20065;-84
2022/12/26 00:46:10;;;;;;;10.93;6.10;;;3.70;99.90;;;;;;4934122;29;20062;-84
2022/12/26 00:48:37;;;;;;;6.20;4.03;;;3.70;99.90;;;;;;4934899;29;20047;-84
2022/12/26 00:51:05;;;;;;;4.63;3.75;;;3.80;99.90;;;;;;4880416;29;20060;-84
2022/12/26 00:53:33;;;;;;;4.90;4.53;;;3.90;99.90;;;;;;4905460;29;20049;-84
2022/12/26 00:56:03;;;;;;;3.20;2.90;;;3.90;99.90;;;;;;4865344;29;20060;-84
2022/12/26 00:58:31;;;;;;;5.05;3.60;;;4.00;99.90;;;;;;4876193;29;20052;-84
2022/12/26 01:01:16;;;;;;;6.43;4.85;;;4.30;99.90;;;;;;4891339;29;20044;-84
2022/12/26 01:03:45;;;;;;;8.40;5.30;;;4.00;99.90;;;;;;4909407;29;20458;-84
2022/12/26 01:06:14;;;;;;;3.90;3.55;;;3.80;99.90;;;;;;4910947;29;20051;-84
2022/12/26 01:08:41;;;;;;;5.35;3.35;;;3.60;99.90;;;;;;4892296;29;20040;-83
2022/12/26 01:11:12;;;;;;;5.85;4.53;;;3.40;99.90;;;;;;4910548;29;20516;-83
2022/12/26 01:13:40;;;;;;;3.70;3.40;;;3.30;99.90;;;;;;4878102;29;20036;-84
2022/12/26 01:16:08;;;;;;;4.07;3.38;;;3.30;99.90;;;;;;4929938;29;20064;-84
2022/12/26 01:18:36;;;;;;;5.07;3.22;;;3.20;99.90;;;;;;4932279;29;20518;-84
2022/12/26 01:21:07;;;;;;;4.78;3.33;;;3.20;99.90;;;;;;4914984;29;20044;-84
2022/12/26 01:23:35;;;;;;;4.90;3.60;;;3.40;99.90;;;;;;4930096;29;20051;-83
2022/12/26 01:26:06;;;;;;;3.22;2.92;;;3.50;99.90;;;;;;4914511;29;20419;-84
2022/12/26 01:28:48;;;;;;;3.30;2.60;;;3.80;99.90;;;;;;4931818;29;20036;-84
2022/12/26 01:31:16;;;;;;;2.60;2.40;;;4.00;99.90;;;;;;4930883;29;20411;-83
2022/12/26 01:33:45;;;;;;;2.42;2.22;;;4.10;99.90;;;;;;4926769;29;20419;-84
2022/12/26 01:36:13;;;;;;;3.33;3.00;;;4.00;99.90;;;;;;4921679;29;20046;-84
2022/12/26 01:38:40;;;;;;;3.80;3.05;;;4.00;99.90;;;;;;4927798;29;20407;-84
2022/12/26 01:41:20;;;;;;;5.47;3.40;;;4.10;99.90;;;;;;4930305;29;20071;-84
2022/12/26 01:44:32;;;;;;;3.03;2.72;;;4.20;99.90;;;;;;4927334;29;20070;-83
2022/12/26 01:47:00;;;;;;;3.13;2.65;;;4.20;99.90;;;;;;4903746;29;20055;-84
2022/12/26 01:49:36;;;;;;;3.83;3.53;;;4.10;99.90;;;;;;4930951;29;20070;-84
2022/12/26 01:52:08;;;;;;;3.33;3.03;;;4.30;99.90;;;;;;4928688;28;20269;-84
2022/12/26 01:54:39;;;;;;;3.72;3.00;;;4.30;99.90;;;;;;4931617;29;20055;-83
2022/12/26 01:57:15;;;;;;;3.35;3.15;;;4.30;99.90;;;;;;4944420;29;20462;-84
2022/12/26 01:59:45;;;;;;;3.53;3.22;;;4.40;99.90;;;;;;4918242;29;20423;-84
2022/12/26 02:02:13;;;;;;;4.95;2.65;;;4.30;99.90;;;;;;4949994;28;20044;-84
2022/12/26 02:07:38;;;;;;;4.90;3.00;;;4.20;99.90;;;;;;4948639;29;20043;-84
2022/12/26 02:10:10;;;;;;;4.38;3.97;;;4.30;99.90;;;;;;4932403;29;20431;-84
2022/12/26 02:12:38;;;;;;;5.40;3.53;;;4.30;99.90;;;;;;4931742;29;20062;-84
2022/12/26 02:15:11;;;;;;;2.67;2.47;;;4.30;99.90;;;;;;4917423;29;20537;-84
2022/12/26 02:17:39;;;;;;;4.47;2.80;;;4.30;99.90;;;;;;4948141;29;20043;-84
2022/12/26 02:20:56;;;;;;;3.65;2.85;;;4.30;99.90;;;;;;4948283;28;20374;-84
2022/12/26 02:23:43;;;;;;;3.58;3.33;;;4.30;99.90;;;;;;4947455;29;20051;-84
2022/12/26 02:27:17;;;;;;;3.05;2.75;;;4.30;99.90;;;;;;4942846;29;20058;-84
2022/12/26 02:30:00;;;;;;;2.80;2.67;;;4.40;99.90;;;;;;4871103;29;20044;-84
2022/12/26 02:32:36;;;;;;;2.85;2.50;;;4.50;99.90;;;;;;4859525;29;20059;-84
2022/12/26 02:35:07;;;;;;;2.30;2.10;;;4.60;99.90;;;;;;4911906;29;20059;-84
2022/12/26 02:37:41;;;;;;;3.07;2.53;;;4.60;99.90;;;;;;4930895;29;20039;-84
2022/12/26 02:40:46;;;;;;;2.38;2.28;;;4.50;99.90;;;;;;4931937;28;20303;-84
2022/12/26 02:43:54;;;;;;;3.83;2.10;;;4.40;99.90;;;;;;4933205;29;20078;-84
2022/12/26 02:47:04;;;;;;;2.90;2.70;;;4.20;99.90;;;;;;4930814;29;20059;-84
2022/12/26 03:14:33;;;;;;;3.00;2.80;;;4.10;99.90;;;;;;4946348;29;20062;-84
2022/12/26 03:17:20;;;;;;;2.58;2.38;;;3.80;99.90;;;;;;4932772;29;20071;-84
2022/12/26 03:20:17;;;;;;;3.95;2.70;;;3.40;99.90;;;;;;4933096;29;20058;-84
2022/12/26 03:22:58;;;;;;;3.65;3.38;;;3.20;99.90;;;;;;4944786;29;20047;-84
2022/12/26 03:28:26;;;;;;;2.22;2.03;;;3.10;99.90;;;;;;4939098;28;20054;-84
2022/12/26 03:30:57;;;;;;;2.92;2.60;;;3.20;99.90;;;;;;4937098;29;20047;-84
2022/12/26 03:36:21;;;;;;;3.00;2.80;;;3.10;99.90;;;;;;4952164;29;20058;-84
2022/12/26 03:39:07;;;;;;;2.65;2.45;;;3.50;99.90;;;;;;4932574;29;20051;-84
2022/12/26 04:41:34;;;;;;;3.13;2.92;;;3.70;99.90;;;;;;4951244;28;20051;-84
2022/12/26 04:44:15;;;;;;;2.70;2.50;;;2.80;99.90;;;;;;4951648;28;20585;-83
2022/12/26 04:46:45;;;;;;;3.17;2.17;;;2.60;99.90;;;;;;4952153;29;20300;-83
2022/12/26 04:52:05;;;;;;;2.78;1.90;;;2.30;99.90;;;;;;4933247;28;20426;-84
2022/12/26 04:54:32;;;;;;;7.68;2.17;;;2.50;99.90;;;;;;4931407;29;20431;-84
2022/12/26 04:57:01;;;;;;;2.63;2.42;;;2.40;99.90;;;;;;4935622;29;20047;-83
2022/12/26 04:59:29;;;;;;;3.80;2.72;;;2.50;99.90;;;;;;4951057;29;20047;-83
2022/12/26 05:10:26;;;;;;;2.22;2.08;;;2.80;99.90;;;;;;4949749;29;20474;-84
2022/12/26 05:12:54;;;;;;;;;;;3.00;99.90;;;;;;4951386;29;20098;-84
2022/12/26 05:15:22;;;;;;;2.53;2.33;;;3.00;99.90;;;;;;4919365;29;19922;-84
2022/12/26 05:29:11;;;;;;;2.60;2.17;;;2.70;99.90;;;;;;4933261;29;20043;-84
2022/12/26 05:31:39;;;;;;;4.05;2.55;;;2.60;99.90;;;;;;4949333;28;20078;-84
2022/12/26 05:34:09;;;;;;;2.53;2.33;;;2.60;99.90;;;;;;4933610;29;20426;-84
2022/12/26 05:36:40;;;;;;;2.22;2.13;;;2.60;99.90;;;;;;4951332;29;20050;-84
2022/12/26 05:39:09;;;;;;;3.28;2.85;;;2.50;99.90;;;;;;4932431;29;20063;-83
2022/12/26 05:41:37;;;;;;;2.03;1.92;;;2.60;99.90;;;;;;4950043;28;20043;-84
2022/12/26 05:44:06;;;;;;;2.20;2.10;;;2.60;99.90;;;;;;4933176;29;20234;-84
2022/12/26 05:46:33;;;;;;;3.63;2.55;;;2.40;99.90;;;;;;4918697;29;20059;-84
2022/12/26 05:49:04;;;;;;;5.72;2.47;;;2.40;99.90;;;;;;4932159;29;20051;-84
2022/12/26 05:51:32;;;;;;;2.38;2.25;;;2.30;99.90;;;;;;4950135;29;20070;-84
2022/12/26 05:54:01;;;;;;;1.65;1.48;;;2.20;99.90;;;;;;4940228;29;20423;-84
2022/12/26 05:56:28;;;;;;;2.80;2.58;;;2.10;99.90;;;;;;4940976;29;20049;-84
2022/12/26 05:58:58;;;;;;;1.60;1.50;;;2.60;99.90;;;;;;4951854;29;20051;-84
2022/12/26 06:01:28;;;;;;;2.50;2.40;;;2.90;99.90;;;;;;4941229;29;20462;-83
2022/12/26 06:03:57;;;;;;;1.92;1.83;;;3.00;99.90;;;;;;4933248;28;20066;-84
2022/12/26 06:06:26;;;;;;;2.20;2.03;;;2.70;99.90;;;;;;4932364;29;20062;-84
2022/12/26 06:08:56;;;;;;;3.00;1.85;;;2.60;99.90;;;;;;4931988;29;20050;-84
2022/12/26 06:11:25;;;;;;;2.42;2.22;;;3.00;99.90;;;;;;4949194;29;20051;-84
2022/12/26 06:13:53;;;;;;;2.40;1.92;;;3.20;99.90;;;;;;4916663;29;20043;-84
2022/12/26 06:16:21;;;;;;;2.20;2.00;;;3.50;99.90;;;;;;4931508;29;20054;-84
2022/12/26 06:18:49;;;;;;;2.08;1.98;;;3.60;99.90;;;;;;4950955;29;20051;-84
2022/12/26 06:21:18;;;;;;;1.50;1.50;;;3.70;99.90;;;;;;4944242;28;20077;-84
2022/12/26 06:23:47;;;;;;;2.00;1.90;;;3.70;99.90;;;;;;4932355;29;20047;-84
2022/12/26 06:26:15;;;;;;;2.30;2.17;;;3.90;99.90;;;;;;4949334;28;20506;-84
2022/12/26 06:28:44;;;;;;;1.60;1.50;;;4.00;99.90;;;;;;4917203;29;20039;-84
2022/12/26 06:31:14;;;;;;;3.28;2.30;;;4.30;99.90;;;;;;4933287;29;20063;-84
2022/12/26 06:33:43;;;;;;;2.33;2.20;;;4.30;99.90;;;;;;4932963;29;20047;-84
2022/12/26 06:36:13;;;;;;;1.92;1.83;;;4.40;99.90;;;;;;4947782;29;20066;-84
2022/12/26 06:38:42;;;;;;;1.67;1.58;;;4.40;99.90;;;;;;4917415;29;20055;-84
2022/12/26 06:41:14;;;;;;;1.33;1.23;;;4.50;99.90;;;;;;4932073;29;20059;-84
2022/12/26 06:43:43;;;;;;;1.42;1.33;;;4.60;99.90;;;;;;4933002;29;20066;-84
2022/12/26 06:46:13;;;;;;;3.53;2.22;;;4.80;99.90;;;;;;4916199;29;20124;-84
2022/12/26 06:48:41;;;;;;;2.08;1.98;;;4.90;99.90;;;;;;4948006;29;20443;-84
2022/12/26 06:51:18;;;;;;;2.05;1.88;;;4.80;99.90;;;;;;4933046;29;20059;-84
2022/12/26 06:53:47;;;;;;;2.65;2.55;;;4.80;99.90;;;;;;4948770;28;20050;-84
2022/12/26 06:56:20;;;;;;;3.13;2.30;;;4.80;99.90;;;;;;4930700;29;20039;-84
2022/12/26 06:58:55;;;;;;;2.47;2.35;;;5.00;99.90;;;;;;4950428;29;20050;-85
2022/12/26 07:01:24;;;;;;;1.85;1.75;;;5.30;99.90;;;;;;4915407;29;20055;-85
2022/12/26 07:03:53;;;;;;;2.30;1.90;;;5.30;99.90;;;;;;4949169;29;20055;-84
2022/12/26 07:06:27;;;;;;;2.30;1.85;;;5.50;99.90;;;;;;4948980;29;20403;-85
2022/12/26 07:09:03;;;;;;;1.73;1.63;;;5.50;99.90;;;;;;4947635;28;20047;-85
2022/12/26 07:11:34;;;;;;;1.75;1.65;;;5.60;99.90;;;;;;4932005;29;20081;-84
2022/12/26 07:14:03;;;;;;;2.75;2.47;;;5.50;99.90;;;;;;4932889;29;20063;-85
2022/12/26 07:16:33;;;;;;;2.55;2.35;;;5.50;99.90;;;;;;4932177;29;20667;-84
2022/12/26 07:19:01;;;;;;;2.00;1.90;;;5.40;99.90;;;;;;4950079;29;20047;-84
2022/12/26 07:21:29;;;;;;;1.70;1.52;;;5.30;99.90;;;;;;4932436;29;20035;-84
2022/12/26 07:24:12;;;;;;;2.28;2.08;;;5.20;99.90;;;;;;4931414;28;20058;-84
2022/12/26 07:26:41;;;;;;;2.63;2.42;;;5.20;99.90;;;;;;4945376;29;20058;-84
2022/12/26 07:29:10;;;;;;;2.67;2.30;;;5.20;99.90;;;;;;4932445;29;20061;-84
2022/12/26 07:31:38;;;;;;;2.30;2.15;;;5.20;99.90;;;;;;4932551;29;20070;-84
2022/12/26 07:34:07;;;;;;;3.47;2.22;;;5.00;99.90;;;;;;4932193;29;20435;-84
2022/12/26 07:36:34;;;;;;;2.00;1.90;;;4.90;99.90;;;;;;4948000;28;20054;-84
2022/12/26 07:39:03;;;;;;;3.63;1.95;;;5.00;99.90;;;;;;4915808;29;20051;-84
2022/12/26 07:44:17;;;;;;;3.20;1.77;;;5.00;99.90;;;;;;4932707;29;20669;-84
2022/12/26 07:46:45;;;;;;;4.80;2.33;;;5.00;99.90;;;;;;4948185;29;20051;-84
2022/12/26 07:49:13;;;;;;;5.80;3.03;;;5.00;99.90;;;;;;4932381;29;20058;-84
2022/12/26 07:51:42;;;;;;;2.63;2.38;;;4.90;99.90;;;;;;4932109;29;20062;-84
2022/12/26 07:54:10;;;;;;;2.65;2.15;;;4.90;99.90;;;;;;4949413;28;20047;-84
2022/12/26 07:56:39;;;;;;;1.90;1.80;;;5.00;99.90;;;;;;4895887;29;20063;-84
2022/12/26 07:59:14;;;;;;;2.17;1.95;;;5.10;99.90;;;;;;4923861;29;20070;-84
2022/12/26 08:01:42;;;;;;;2.05;1.83;;;5.30;99.90;;;;;;4931763;29;20423;-84
2022/12/26 08:04:12;;;;;;;3.63;2.15;;;5.50;99.90;;;;;;4931329;28;20156;-84
2022/12/26 08:06:45;;;;;;;2.40;1.90;;;5.60;99.90;;;;;;4932220;29;20043;-84
2022/12/26 08:09:16;;;;;;;2.67;2.45;;;5.70;99.90;;;;;;4932103;29;20411;-84
2022/12/26 08:11:44;;;;;;;1.75;1.65;;;5.80;99.90;;;;;;4932444;29;20071;-84
2022/12/26 08:14:15;;;;;;;1.42;1.40;;;5.90;99.90;;;;;;4932715;29;20064;-84
2022/12/26 08:16:43;;;;;;;4.60;2.00;;;6.00;99.90;;;;;;4931033;29;20048;-84
2022/12/26 08:19:19;;;;;;;2.70;2.20;;;6.20;99.90;;;;;;4934563;29;20447;-84
2022/12/26 08:21:47;;;;;;;2.10;1.90;;;6.30;99.90;;;;;;4890877;29;20054;-84
2022/12/26 08:24:14;;;;;;;2.30;1.80;;;6.40;99.90;;;;;;4930940;29;20047;-85
2022/12/26 08:26:42;;;;;;;2.35;2.15;;;6.50;99.90;;;;;;4931907;29;20058;-84
2022/12/26 08:29:10;;;;;;;2.10;1.90;;;6.60;99.90;;;;;;4916106;29;20067;-84
2022/12/26 08:31:38;;;;;;;2.45;1.98;;;6.70;99.90;;;;;;4914991;29;20396;-84
2022/12/26 08:34:05;;;;;;;9.65;2.10;;;6.70;99.90;;;;;;4928684;29;20040;-84
2022/12/26 08:36:33;;;;;;;2.20;1.90;;;6.70;99.90;;;;;;4913020;29;20044;-84
2022/12/26 08:39:04;;;;;;;3.30;2.50;;;6.80;99.90;;;;;;4930197;29;20051;-84
2022/12/26 08:41:31;;;;;;;2.60;2.40;;;6.70;99.90;;;;;;4931535;29;20044;-84
2022/12/26 08:43:59;;;;;;;2.00;1.70;;;6.70;99.90;;;;;;4931630;28;20052;-84
2022/12/26 08:46:47;;;;;;;2.50;2.30;;;6.70;99.90;;;;;;4912619;29;20042;-84
2022/12/26 08:49:15;;;;;;;3.00;1.92;;;6.70;99.90;;;;;;4920380;29;20044;-84
2022/12/26 08:51:43;;;;;;;2.92;2.58;;;6.70;99.90;;;;;;4930374;29;20071;-84
2022/12/26 08:54:10;;;;;;;1.98;1.88;;;6.70;99.90;;;;;;4928513;29;20482;-84
2022/12/26 08:56:38;;;;;;;4.03;2.63;;;6.70;99.90;;;;;;4943013;29;20043;-84
2022/12/26 08:59:06;;;;;;;1.85;1.73;;;6.70;99.90;;;;;;4907760;29;20067;-83
2022/12/26 09:01:34;;;;;;;2.17;1.77;;;6.70;99.90;;;;;;4951581;28;20053;-83
2022/12/26 09:04:05;;;;;;;2.40;1.88;;;6.70;99.90;;;;;;4932724;29;20055;-84
2022/12/26 09:06:37;;;;;;;3.17;2.22;;;6.80;99.90;;;;;;4919451;29;20495;-84
2022/12/26 09:09:10;;;;;;;2.10;2.00;;;6.90;99.90;;;;;;4948594;28;20043;-84
2022/12/26 09:11:39;;;;;;;2.08;1.83;;;7.00;99.90;;;;;;4919357;29;20074;-84
2022/12/26 09:14:08;;;;;;;26.70;23.25;;;7.00;99.90;;;;;;4916753;29;20043;-84
2022/12/26 09:16:42;;;;;;;3.22;2.92;;;7.00;99.90;;;;;;4950594;28;20046;-83
2022/12/26 09:19:17;;;;;;;2.50;2.30;;;7.10;99.90;;;;;;4918927;29;20262;-83
2022/12/26 09:21:47;;;;;;;3.55;2.30;;;7.20;99.90;;;;;;4930149;29;20050;-84
2022/12/26 09:24:17;;;;;;;2.72;2.47;;;7.30;99.90;;;;;;4932612;29;20047;-82
2022/12/26 09:26:47;;;;;;;3.05;2.40;;;7.50;99.90;;;;;;4932009;29;20054;-82
2022/12/26 09:29:14;;;;;;;2.78;2.55;;;7.60;99.90;;;;;;4950922;29;20046;-83
2022/12/26 09:31:45;;;;;;;3.38;1.88;;;7.70;99.90;;;;;;4950535;29;20491;-84
2022/12/26 09:34:13;;;;;;;2.22;2.03;;;7.80;99.90;;;;;;4926732;29;20242;-84
2022/12/26 09:36:42;;;;;;;4.45;2.38;;;8.10;99.90;;;;;;4943042;29;20043;-84
2022/12/26 09:39:10;;;;;;;2.97;2.40;;;8.70;99.90;;;;;;4932688;29;20437;-85
2022/12/26 09:42:02;;;;;;;2.50;2.30;;;9.10;99.90;;;;;;4932103;28;20046;-84
2022/12/26 09:44:57;;;;;;;3.38;2.30;;;9.40;99.90;;;;;;4949149;29;20392;-84
2022/12/26 09:47:41;;;;;;;3.15;2.85;;;9.40;99.90;;;;;;4918729;29;20078;-85
2022/12/26 09:50:08;;;;;;;3.85;3.50;;;9.30;99.90;;;;;;4933244;29;20058;-85
2022/12/26 09:53:15;;;;;;;3.72;2.60;;;9.80;99.90;;;;;;4939865;29;20051;-85
2022/12/26 09:55:43;;;;;;;2.90;2.55;;;10.50;99.90;;;;;;4934382;29;20055;-85
2022/12/26 09:58:30;;;;;;;3.42;2.15;;;10.40;99.90;;;;;;4921724;29;20102;-86
2022/12/26 10:01:19;;;;;;;2.15;1.90;;;10.10;99.90;;;;;;4915166;29;20568;-85
2022/12/26 10:03:53;;;;;;;2.20;1.92;;;9.90;99.90;;;;;;4927839;29;20040;-85
2022/12/26 10:06:21;;;;;;;;;;;9.70;99.90;;;;;;4950143;29;20051;-84
2022/12/26 10:09:13;;;;;;;3.80;3.42;;;9.50;99.90;;;;;;4948928;29;20349;-83
2022/12/26 10:12:03;;;;;;;3.28;1.90;;;9.40;99.90;;;;;;4933393;29;20067;-84
2022/12/26 10:15:00;;;;;;;3.22;2.88;;;9.30;99.90;;;;;;4910996;29;20051;-86
2022/12/26 10:17:39;;;;;;;2.40;2.28;;;9.20;99.90;;;;;;4949475;28;20046;-87
2022/12/26 10:20:13;;;;;;;2.13;1.80;;;9.20;99.90;;;;;;4935140;28;20494;-87
2022/12/26 10:23:00;;;;;;;2.80;2.53;;;9.10;99.90;;;;;;4936169;29;20491;-83
2022/12/26 10:26:00;;;;;;;2.30;2.10;;;8.90;99.90;;;;;;4931113;29;20062;-85
2022/12/26 10:28:48;;;;;;;3.15;2.92;;;9.00;99.90;;;;;;4948533;28;20070;-85
2022/12/26 10:31:44;;;;;;;2.75;2.42;;;9.30;99.90;;;;;;4932925;29;20051;-86
2022/12/26 10:34:38;;;;;;;2.28;2.10;;;9.50;99.90;;;;;;4909280;29;20054;-86
2022/12/26 10:37:29;;;;;;;2.08;1.88;;;9.70;99.90;;;;;;4932072;29;20712;-86
2022/12/26 10:40:16;;;;;;;;;;;9.80;99.90;;;;;;4932767;29;20063;-85
2022/12/26 10:43:25;;;;;;;2.75;2.20;;;10.00;99.90;;;;;;4933724;29;19933;-86
2022/12/26 10:46:16;;;;;;;1.67;1.58;;;10.10;99.90;;;;;;4931188;29;20051;-84
2022/12/26 10:48:47;;;;;;;3.70;2.22;;;10.20;99.90;;;;;;4916086;29;20056;-85
2022/12/26 10:51:15;;;;;;;2.90;2.20;;;10.30;99.90;;;;;;4917033;29;20373;-87
2022/12/26 10:53:48;;;;;;;2.78;2.40;;;10.40;99.90;;;;;;4941513;28;20047;-87
2022/12/26 10:56:16;;;;;;;2.08;1.88;;;10.50;99.90;;;;;;4930993;29;20043;-86
2022/12/26 10:58:47;;;;;;;10.07;7.57;;;10.60;99.90;;;;;;4932188;29;20047;-86
2022/12/26 11:01:27;;;;;;;8.13;5.32;;;10.70;99.90;;;;;;4912280;29;20043;-85
2022/12/26 11:03:57;;;;;;;3.05;2.70;;;10.60;99.90;;;;;;4932182;29;20044;-85
2022/12/26 11:06:38;;;;;;;2.50;2.30;;;10.60;99.90;;;;;;4932862;29;20055;-84
2022/12/26 11:09:21;;;;;;;4.93;4.05;;;10.70;99.90;;;;;;4930099;29;20055;-83
2022/12/26 11:11:51;;;;;;;3.08;2.13;;;10.80;99.90;;;;;;4917008;29;20051;-84
2022/12/26 11:14:30;;;;;;;2.33;2.13;;;10.80;99.90;;;;;;4924476;29;20440;-83
2022/12/26 11:17:11;;;;;;;7.32;2.28;;;10.80;99.90;;;;;;4918239;29;20043;-84
2022/12/26 11:19:41;;;;;;;4.50;3.42;;;10.70;99.90;;;;;;4949880;29;20043;-84
2022/12/26 11:22:27;;;;;;;3.43;2.50;;;10.60;99.90;;;;;;4946732;29;20081;-84
2022/12/26 11:25:17;;;;;;;2.20;2.00;;;10.50;99.90;;;;;;4948900;28;20431;-84
2022/12/26 11:27:56;;;;;;;2.72;2.45;;;10.40;99.90;;;;;;4932315;28;20332;-84
2022/12/26 11:30:24;;;;;;;2.58;2.08;;;10.40;99.90;;;;;;4934356;29;20047;-84
2022/12/26 11:33:14;;;;;;;1.77;1.63;;;10.30;99.90;;;;;;4928948;29;20055;-88
2022/12/26 11:35:52;;;;;;;1.90;1.60;;;10.20;99.90;;;;;;4948600;29;20418;-88
2022/12/26 11:38:33;;;;;;;3.22;2.28;;;10.20;99.90;;;;;;4930959;29;20048;-87
2022/12/26 11:41:39;;;;;;;3.08;2.80;;;10.20;99.90;;;;;;4947267;29;20047;-87
2022/12/26 11:44:19;;;;;;;2.00;1.90;;;10.20;99.90;;;;;;4923399;28;20047;-87
2022/12/26 11:47:13;;;;;;;2.28;2.13;;;10.10;99.90;;;;;;4926658;29;20040;-87
2022/12/26 11:49:52;;;;;;;2.67;1.60;;;10.10;99.90;;;;;;4917786;29;20055;-86
2022/12/26 11:52:46;;;;;;;2.72;2.28;;;10.00;99.90;;;;;;4931077;29;20047;-88
2022/12/26 11:55:25;;;;;;;2.15;1.95;;;10.00;99.90;;;;;;4951562;29;20054;-88
2022/12/26 11:58:08;;;;;;;2.13;1.92;;;9.90;99.90;;;;;;4912476;29;20056;-88
2022/12/26 12:00:39;;;;;;;1.83;1.70;;;9.80;99.90;;;;;;4926133;29;20040;-88
2022/12/26 12:03:17;;;;;;;1.70;1.60;;;9.80;99.90;;;;;;4909927;29;20059;-88
2022/12/26 12:06:08;;;;;;;1.67;1.58;;;9.70;99.90;;;;;;4911442;29;20036;-91
2022/12/26 12:09:00;;;;;;;2.07;1.97;;;9.60;99.90;;;;;;4891635;29;20079;-89
2022/12/26 12:11:43;;;;;;;10.60;1.83;;;9.60;99.90;;;;;;4913694;29;20483;-88
2022/12/26 12:14:31;;;;;;;4.15;2.42;;;9.60;99.90;;;;;;4911701;29;20051;-87
2022/12/26 12:17:05;;;;;;;2.00;1.88;;;9.50;99.90;;;;;;4897657;29;20044;-88
2022/12/26 12:19:42;;;;;;;2.05;1.70;;;9.50;99.90;;;;;;4897793;29;20455;-87
2022/12/26 12:22:38;;;;;;;2.08;1.33;;;9.50;99.90;;;;;;4908298;29;20044;-87
2022/12/26 12:25:10;;;;;;;1.60;1.50;;;9.50;99.90;;;;;;4897401;29;20411;-87
2022/12/26 12:28:00;;;;;;;2.47;2.27;;;9.40;99.90;;;;;;4913671;29;20508;-87
2022/12/26 12:30:57;;;;;;;1.63;1.52;;;9.40;99.90;;;;;;4925746;29;20056;-87
2022/12/26 12:33:39;;;;;;;3.55;1.60;;;9.40;99.90;;;;;;4896962;29;20052;-88
2022/12/26 12:36:18;;;;;;;3.20;2.22;;;9.30;99.90;;;;;;4894783;29;20393;-86
2022/12/26 12:38:48;;;;;;;1.98;1.88;;;9.30;99.90;;;;;;4911165;29;20052;-88
2022/12/26 12:41:38;;;;;;;6.55;2.40;;;9.20;99.90;;;;;;4911527;29;20424;-87
2022/12/26 12:44:27;;;;;;;4.95;1.92;;;9.20;99.90;;;;;;4911722;29;20429;-87
2022/12/26 12:47:07;;;;;;;1.00;0.98;;;9.10;99.90;;;;;;4895412;29;20051;-88
2022/12/26 12:49:42;;;;;;;1.52;1.42;;;9.40;99.90;;;;;;4909170;29;20059;-88
2022/12/26 12:52:31;;;;;;;1.70;1.60;;;10.20;99.90;;;;;;4913651;29;20048;-88
2022/12/26 12:55:24;;;;;;;3.75;1.25;;;10.80;99.90;;;;;;4912463;29;20432;-86
2022/12/26 12:58:05;;;;;;;1.52;1.40;;;11.00;99.90;;;;;;4923402;29;20420;-88
2022/12/26 13:00:43;;;;;;;1.00;1.00;;;11.00;99.90;;;;;;4909088;29;20044;-83
2022/12/26 13:03:46;;;;;;;1.33;1.20;;;10.80;99.90;;;;;;4913716;29;20056;-85
2022/12/26 13:06:35;;;;;;;2.80;2.25;;;10.60;99.90;;;;;;4911166;29;20048;-89
2022/12/26 13:09:15;;;;;;;2.60;2.38;;;10.30;99.90;;;;;;4909804;29;20527;-87
2022/12/26 13:11:51;;;;;;;2.03;1.73;;;10.20;99.90;;;;;;4910528;29;20513;-88
2022/12/26 13:14:23;;;;;;;1.50;1.40;;;10.10;99.90;;;;;;4868039;29;20072;-87
2022/12/26 13:17:00;;;;;;;1.70;1.60;;;9.90;99.90;;;;;;4893555;29;20051;-84
2022/12/26 13:19:39;;;;;;;2.22;2.03;;;9.80;99.90;;;;;;4879502;29;20084;-84
2022/12/26 13:22:24;;;;;;;2.58;2.38;;;9.70;99.90;;;;;;4893118;29;20515;-86
2022/12/26 13:24:57;;;;;;;2.92;2.28;;;9.50;99.90;;;;;;4894464;29;20519;-86
2022/12/26 13:27:36;;;;;;;2.60;2.40;;;9.50;99.90;;;;;;4894821;29;20509;-83
2022/12/26 13:30:15;;;;;;;2.33;2.20;;;9.40;99.90;;;;;;4878731;29;20063;-87
2022/12/26 13:32:44;;;;;;;2.35;2.25;;;9.50;99.90;;;;;;4909279;29;20044;-85
2022/12/26 13:35:51;;;;;;;11.93;3.35;;;9.40;99.90;;;;;;4894796;29;20056;-85
2022/12/26 13:38:20;;;;;;;4.18;1.95;;;9.40;99.90;;;;;;4877301;29;20048;-87
2022/12/26 13:44:23;;;;;;;3.47;2.17;;;9.30;99.90;;;;;;4910221;29;20966;-87
2022/12/26 13:46:50;;;;;;;3.53;2.35;;;9.20;99.90;;;;;;4894265;29;20668;-86
2022/12/26 13:49:39;;;;;;;4.28;2.50;;;9.20;99.90;;;;;;4894147;29;20120;-88
2022/12/26 13:52:09;;;;;;;3.13;2.42;;;9.30;99.90;;;;;;4890733;29;20064;-86
2022/12/26 13:55:06;;;;;;;2.90;2.70;;;9.20;99.90;;;;;;4910828;29;20365;-87
2022/12/26 13:57:35;;;;;;;3.15;2.85;;;9.10;99.90;;;;;;4926000;29;20066;-87
2022/12/26 14:00:08;;;;;;;5.18;2.85;;;9.10;99.90;;;;;;4908002;28;20047;-87
2022/12/26 14:03:12;;;;;;;7.00;2.22;;;9.00;99.90;;;;;;4926072;29;20051;-88
2022/12/26 14:06:06;;;;;;;3.45;2.40;;;9.00;99.90;;;;;;4925635;29;20036;-86
2022/12/26 14:09:06;;;;;;;3.95;2.33;;;9.00;99.90;;;;;;4895532;29;20048;-85
2022/12/26 14:11:40;;;;;;;2.75;2.00;;;8.90;99.90;;;;;;4910989;29;20052;-86
2022/12/26 14:14:29;;;;;;;5.38;3.58;;;8.90;99.90;;;;;;4913557;29;20397;-85
2022/12/26 14:17:08;;;;;;;2.95;2.30;;;8.90;99.90;;;;;;4910984;29;20055;-86
2022/12/26 14:20:01;;;;;;;3.10;2.83;;;8.90;99.90;;;;;;4928036;29;20056;-87
2022/12/26 14:23:19;;;;;;;4.22;2.72;;;8.90;99.90;;;;;;4908609;29;20471;-86
2022/12/26 14:25:58;;;;;;;3.45;3.15;;;8.80;99.90;;;;;;4936145;29;20044;-88
2022/12/26 14:28:53;;;;;;;4.63;3.03;;;8.80;99.90;;;;;;4923163;29;20044;-87
2022/12/26 14:31:44;;;;;;;11.98;2.90;;;8.80;99.90;;;;;;4926893;29;20050;-86
2022/12/26 14:34:31;;;;;;;6.03;3.08;;;8.80;99.90;;;;;;4939979;29;20052;-87
2022/12/26 14:37:24;;;;;;;4.47;3.28;;;8.70;99.90;;;;;;4908371;29;20044;-88
2022/12/26 14:40:07;;;;;;;3.22;2.83;;;8.70;99.90;;;;;;4926789;29;20067;-87
2022/12/26 14:43:11;;;;;;;3.70;3.13;;;8.70;99.90;;;;;;4927368;29;20542;-86
2022/12/26 14:45:42;;;;;;;5.53;4.25;;;8.70;99.90;;;;;;4913605;29;20054;-87
2022/12/26 14:48:16;;;;;;;4.03;3.63;;;8.60;99.90;;;;;;4909438;29;20059;-87
2022/12/26 14:51:08;;;;;;;4.90;3.63;;;8.60;99.90;;;;;;4926957;29;20063;-87
2022/12/26 14:53:37;;;;;;;5.38;4.10;;;8.60;99.90;;;;;;4888645;29;20040;-86
2022/12/26 14:56:10;;;;;;;3.33;2.72;;;8.60;99.90;;;;;;4928523;29;20455;-87
2022/12/26 14:59:07;;;;;;;4.15;3.38;;;8.50;99.90;;;;;;4912092;29;20055;-87
2022/12/26 15:01:35;;;;;;;4.25;3.17;;;8.50;99.90;;;;;;4884409;29;20051;-85
2022/12/26 15:04:18;;;;;;;5.28;4.80;;;8.50;99.90;;;;;;4917624;29;20070;-87
2022/12/26 15:07:13;;;;;;;2.55;2.35;;;8.50;99.90;;;;;;4930408;29;20066;-86
2022/12/26 15:10:18;;;;;;;4.35;2.95;;;8.40;99.90;;;;;;4930579;28;20063;-85
2022/12/26 15:13:16;;;;;;;10.35;2.67;;;8.40;99.90;;;;;;4942551;28;20051;-85
2022/12/26 15:15:43;;;;;;;2.78;2.25;;;8.40;99.90;;;;;;4929159;29;20649;-86
2022/12/26 15:18:55;;;;;;;2.88;2.67;;;8.40;99.90;;;;;;4930197;29;20055;-85
2022/12/26 15:21:51;;;;;;;2.58;2.10;;;8.30;99.90;;;;;;4913909;29;20057;-86
2022/12/26 15:24:50;;;;;;;2.95;1.98;;;8.30;99.90;;;;;;4924377;29;20051;-87
2022/12/26 15:28:01;;;;;;;1.98;1.73;;;8.30;99.90;;;;;;4896017;29;20059;-86
2022/12/26 15:30:45;;;;;;;2.10;1.73;;;8.30;99.90;;;;;;4940664;28;20039;-86
2022/12/26 15:33:53;;;;;;;2.83;2.63;;;8.20;99.90;;;;;;4929042;29;20043;-87
2022/12/26 15:36:46;;;;;;;2.30;2.10;;;8.20;99.90;;;;;;4899809;29;20705;-86
2022/12/26 15:39:46;;;;;;;2.53;2.28;;;8.20;99.90;;;;;;4915771;29;20075;-86
2022/12/26 15:42:22;;;;;;;2.92;2.20;;;8.10;99.90;;;;;;4924702;29;20046;-86
2022/12/26 15:45:13;;;;;;;1.83;1.67;;;8.10;99.90;;;;;;4927495;28;20043;-86
2022/12/26 15:48:05;;;;;;;2.50;1.50;;;8.10;99.90;;;;;;4889052;29;20528;-85
2022/12/26 15:50:52;;;;;;;1.80;1.70;;;8.00;99.90;;;;;;4896324;29;20400;-86